^^
Saratoga-Weather Station Historical Data
Daily Summary for January 6, 2020 Units:  Metric    English   Both
Daily Weekly Monthly Yearly Custom
  High: Low: Average:
Temperature: 7.4 °C 3.7 °C 5.8 °C
Dew Point: 5.5 °C 1.7 °C 4.1 °C
Humidity: 93% 83% 89%
Wind Speed: 25.9km/h 1.4km/h 11km/h
Wind Gust: 37km/h - -
Wind- - West
Pressure: 1010.8 hPa 985.8 hPa -
Precipitation: 1.8 mm    
Historical Graphs
 
 
Tabular Data for January 6, 2020
Time Temperature Dew Point Pressure Wind Wind Speed Wind Gust Humidity Rainfall Rate (Hourly) solar
00:00 6.4 °C 5.2 °C 985.8 hPa NNW 7.9 km/h 14.5 km/h 92% 3.0 mm 0 W/m2
00:05 6.4 °C 5.2 °C 985.8 hPa SSW 6.4 km/h 12.9 km/h 92% 3.3 mm 0 W/m2
00:15 6.2 °C 5 °C 986.1 hPa West 9.7 km/h 9.7 km/h 92% 2.5 mm 0 W/m2
00:20 6.2 °C 5.2 °C 985.8 hPa NNE 1.4 km/h 6.4 km/h 93% 2.5 mm 0 W/m2
00:25 6.1 °C 5.1 °C 985.8 hPa West 13 km/h 14.5 km/h 93% 2.0 mm 0 W/m2
07:51 4.5 °C 3.5 °C 992.9 hPa WSW 6.4 km/h 12.9 km/h 93% 0.0 mm 30 W/m2
07:56 4.5 °C 3.5 °C 992.9 hPa NW 14.3 km/h 14.5 km/h 93% 0.0 mm 32 W/m2
08:01 4.6 °C 3.6 °C 993.2 hPa WSW 7.9 km/h 14.5 km/h 93% 0.0 mm 32 W/m2
08:06 4.6 °C 3.6 °C 993.2 hPa NW 16.3 km/h 20.9 km/h 93% 0.0 mm 33 W/m2
08:11 4.7 °C 3.7 °C 993.6 hPa West 13 km/h 16.1 km/h 93% 0.0 mm 26 W/m2
08:17 4.7 °C 3.7 °C 993.6 hPa West 9.7 km/h 19.3 km/h 93% 0.0 mm 32 W/m2
08:22 4.7 °C 3.7 °C 993.6 hPa WSW 6.4 km/h 11.3 km/h 93% 0.0 mm 32 W/m2
08:27 4.8 °C 3.8 °C 993.6 hPa WNW 7.9 km/h 11.3 km/h 93% 0.0 mm 37 W/m2
08:32 4.9 °C 3.9 °C 993.9 hPa SW 9.7 km/h 24.1 km/h 93% 0.2 mm 46 W/m2
08:37 4.9 °C 3.9 °C 993.9 hPa WNW 11.1 km/h 20.9 km/h 93% 0.2 mm 51 W/m2
08:44 5 °C 4 °C 993.9 hPa WNW 11.1 km/h 12.9 km/h 93% 0.2 mm 40 W/m2
08:52 5.1 °C 4.1 °C 993.9 hPa West 6.4 km/h 16.1 km/h 93% 0.2 mm 44 W/m2
08:58 5.1 °C 4.1 °C 994.2 hPa WNW 6.4 km/h 14.5 km/h 93% 0.2 mm 30 W/m2
09:03 5.2 °C 4.2 °C 994.2 hPa WSW 7.9 km/h 17.7 km/h 93% 0.2 mm 47 W/m2
09:07 5.2 °C 4.2 °C 994.2 hPa WSW 7.9 km/h 20.9 km/h 93% 0.2 mm 46 W/m2
09:13 5.3 °C 4.3 °C 994.6 hPa SW 14.3 km/h 17.7 km/h 93% 0.2 mm 37 W/m2
09:18 5.3 °C 4.3 °C 994.9 hPa West 13 km/h 20.9 km/h 93% 0.2 mm 30 W/m2
09:23 5.3 °C 4.3 °C 994.9 hPa West 11.1 km/h 12.9 km/h 93% 0.2 mm 32 W/m2
09:33 5.3 °C 4.3 °C 994.9 hPa WNW 20.9 km/h 20.9 km/h 93% 0.0 mm 33 W/m2
09:38 5.3 °C 4.1 °C 995.3 hPa SW 16.3 km/h 17.7 km/h 92% 0.0 mm 35 W/m2
09:43 5.3 °C 4.1 °C 995.3 hPa West 17.7 km/h 17.7 km/h 92% 0.0 mm 35 W/m2
09:48 5.3 °C 4.1 °C 995.6 hPa West 9.7 km/h 19.3 km/h 92% 0.2 mm 40 W/m2
09:53 5.3 °C 4.1 °C 995.6 hPa West 17.7 km/h 24.1 km/h 92% 0.2 mm 44 W/m2
09:58 5.3 °C 4.1 °C 995.6 hPa West 11.1 km/h 25.7 km/h 92% 0.2 mm 60 W/m2
10:03 5.3 °C 4.1 °C 995.6 hPa NW 9.7 km/h 19.3 km/h 92% 0.5 mm 77 W/m2
10:08 5.3 °C 4.1 °C 995.9 hPa NW 16.3 km/h 24.1 km/h 92% 0.5 mm 93 W/m2
10:13 5.3 °C 4.3 °C 995.9 hPa West 19.5 km/h 19.3 km/h 93% 0.5 mm 88 W/m2
10:18 5.3 °C 4.1 °C 995.9 hPa WNW 16.3 km/h 22.5 km/h 92% 0.5 mm 83 W/m2
10:23 5.3 °C 4.1 °C 996.3 hPa WSW 9.7 km/h 27.4 km/h 92% 0.5 mm 95 W/m2
10:34 5.3 °C 4.1 °C 996.3 hPa NW 13 km/h 17.7 km/h 92% 0.5 mm 90 W/m2
10:39 5.3 °C 4.1 °C 996.3 hPa WNW 14.3 km/h 19.3 km/h 92% 0.8 mm 100 W/m2
10:44 5.3 °C 4.1 °C 996.3 hPa WNW 17.7 km/h 20.9 km/h 92% 0.5 mm 105 W/m2
10:49 5.2 °C 4 °C 996.3 hPa WNW 14.3 km/h 17.7 km/h 92% 0.8 mm 113 W/m2
10:54 5.3 °C 4.1 °C 996.6 hPa West 9.7 km/h 22.5 km/h 92% 0.8 mm 121 W/m2
10:59 5.3 °C 4.3 °C 996.6 hPa WSW 7.9 km/h 16.1 km/h 93% 0.8 mm 128 W/m2
11:04 5.3 °C 4.3 °C 997.0 hPa SW 17.7 km/h 24.1 km/h 93% 0.8 mm 134 W/m2
11:09 5.3 °C 4.3 °C 997.0 hPa NNW 7.9 km/h 20.9 km/h 93% 0.8 mm 158 W/m2
11:14 5.4 °C 4.4 °C 997.0 hPa West 9.7 km/h 12.9 km/h 93% 0.8 mm 174 W/m2
11:19 5.5 °C 4.5 °C 997.3 hPa WSW 16.3 km/h 29 km/h 93% 0.8 mm 207 W/m2
11:24 5.6 °C 4.6 °C 997.0 hPa West 9.7 km/h 14.5 km/h 93% 0.8 mm 218 W/m2
11:29 5.7 °C 4.7 °C 997.3 hPa WSW 13 km/h 17.7 km/h 93% 0.8 mm 214 W/m2
11:34 5.7 °C 4.7 °C 997.3 hPa West 25.9 km/h 25.7 km/h 93% 0.8 mm 234 W/m2
11:40 5.8 °C 4.8 °C 997.3 hPa West 9.7 km/h 19.3 km/h 93% 0.5 mm 195 W/m2
11:45 5.8 °C 4.8 °C 997.6 hPa NW 16.3 km/h 17.7 km/h 93% 0.5 mm 227 W/m2
11:50 5.9 °C 4.7 °C 997.6 hPa North 4.7 km/h 24.1 km/h 92% 0.5 mm 216 W/m2
11:55 5.9 °C 4.7 °C 998.0 hPa West 14.3 km/h 27.4 km/h 92% 0.5 mm 246 W/m2
12:00 6 °C 4.8 °C 997.6 hPa WSW 25.9 km/h 29 km/h 92% 0.2 mm 218 W/m2
12:05 6 °C 4.8 °C 998.0 hPa WNW 13 km/h 20.9 km/h 92% 0.2 mm 237 W/m2
12:10 6.1 °C 4.9 °C 998.0 hPa West 6.4 km/h 37 km/h 92% 0.5 mm 232 W/m2
12:18 6.2 °C 4.9 °C 998.0 hPa West 14.3 km/h 24.1 km/h 92% 0.5 mm 218 W/m2
12:24 6.2 °C 5 °C 998.3 hPa West 11.1 km/h 17.7 km/h 92% 0.2 mm 221 W/m2
12:29 6.3 °C 5.1 °C 998.3 hPa West 19.5 km/h 19.3 km/h 92% 0.2 mm 207 W/m2
12:34 6.4 °C 5.2 °C 998.3 hPa West 11.1 km/h 16.1 km/h 92% 0.2 mm 192 W/m2
12:39 6.4 °C 5.2 °C 998.6 hPa West 9.7 km/h 17.7 km/h 92% 0.2 mm 190 W/m2
12:44 6.4 °C 5.2 °C 998.6 hPa West 16.3 km/h 17.7 km/h 92% 0.2 mm 213 W/m2
12:49 6.5 °C 5.3 °C 998.6 hPa WNW 13 km/h 14.5 km/h 92% 0.2 mm 195 W/m2
12:54 6.5 °C 5.3 °C 998.6 hPa NW 22.7 km/h 24.1 km/h 92% 0.2 mm 267 W/m2
12:59 6.6 °C 5.4 °C 998.6 hPa West 9.7 km/h 16.1 km/h 92% 0.2 mm 288 W/m2
13:04 6.7 °C 5.5 °C 999.0 hPa West 11.1 km/h 17.7 km/h 92% 0.2 mm 279 W/m2
13:09 6.6 °C 5.2 °C 999.0 hPa West 9.7 km/h 20.9 km/h 91% 0.0 mm 276 W/m2
13:14 6.7 °C 5.3 °C 999.0 hPa WSW 11.1 km/h 24.1 km/h 91% 0.0 mm 237 W/m2
13:19 6.8 °C 5.4 °C 999.3 hPa WNW 19.5 km/h 19.3 km/h 91% 0.0 mm 207 W/m2
13:24 6.8 °C 5.3 °C 999.3 hPa West 13 km/h 24.1 km/h 90% 0.0 mm 220 W/m2
13:30 6.8 °C 5.3 °C 999.3 hPa WNW 24.1 km/h 24.1 km/h 90% 0.0 mm 257 W/m2
13:35 6.8 °C 5.3 °C 999.3 hPa West 16.3 km/h 24.1 km/h 90% 0.0 mm 176 W/m2
13:40 6.8 °C 5.3 °C 999.7 hPa West 6.4 km/h 14.5 km/h 90% 0.0 mm 153 W/m2
13:45 6.8 °C 5.1 °C 999.7 hPa West 6.4 km/h 17.7 km/h 89% 0.0 mm 183 W/m2
13:50 6.8 °C 5.1 °C 999.7 hPa WNW 14.3 km/h 24.1 km/h 89% 0.0 mm 248 W/m2
13:55 6.9 °C 5.2 °C 999.7 hPa West 20.9 km/h 20.9 km/h 89% 0.0 mm 234 W/m2
14:00 6.9 °C 5.1 °C 999.7 hPa WSW 14.3 km/h 24.1 km/h 88% 0.0 mm 105 W/m2
14:05 7 °C 5.1 °C 1000.0 hPa WNW 11.1 km/h 22.5 km/h 88% 0.0 mm 76 W/m2
14:10 7 °C 5.1 °C 1000.0 hPa WSW 14.3 km/h 19.3 km/h 88% 0.0 mm 77 W/m2
14:15 6.9 °C 5.1 °C 1000.0 hPa WSW 14.3 km/h 14.5 km/h 88% 0.0 mm 53 W/m2
14:20 6.9 °C 5.1 °C 1000.0 hPa WSW 14.3 km/h 16.1 km/h 88% 0.0 mm 53 W/m2
14:25 6.8 °C 5 °C 1000.0 hPa WNW 7.9 km/h 19.3 km/h 88% 0.0 mm 79 W/m2
14:30 6.8 °C 5.1 °C 1000.3 hPa West 16.3 km/h 20.9 km/h 89% 0.0 mm 225 W/m2
14:35 6.9 °C 5.1 °C 1000.3 hPa NNW 16.3 km/h 20.9 km/h 88% 0.0 mm 234 W/m2
14:40 7.1 °C 5.4 °C 1000.3 hPa WSW 11.1 km/h 17.7 km/h 89% 0.0 mm 288 W/m2
14:45 7.2 °C 5.3 °C 1000.3 hPa West 9.7 km/h 20.9 km/h 88% 0.0 mm 309 W/m2
14:51 7.3 °C 5.3 °C 1000.7 hPa WNW 11.1 km/h 20.9 km/h 87% 0.0 mm 309 W/m2
14:56 7.3 °C 5.3 °C 1000.7 hPa NW 14.3 km/h 27.4 km/h 87% 0.0 mm 276 W/m2
15:01 7.4 °C 5.4 °C 1000.7 hPa WNW 13 km/h 14.5 km/h 87% 0.0 mm 202 W/m2
15:06 7.4 °C 5.2 °C 1000.7 hPa West 16.3 km/h 27.4 km/h 86% 0.0 mm 153 W/m2
15:11 7.3 °C 5.3 °C 1001.0 hPa WSW 16.3 km/h 22.5 km/h 87% 0.0 mm 105 W/m2
15:16 7.2 °C 5.2 °C 1001.0 hPa West 13 km/h 16.1 km/h 87% 0.0 mm 174 W/m2
15:21 7.1 °C 5.1 °C 1001.4 hPa West 13 km/h 19.3 km/h 87% 0.0 mm 118 W/m2
15:26 7.1 °C 5.2 °C 1001.4 hPa WNW 7.9 km/h 17.7 km/h 88% 0.0 mm 120 W/m2
15:31 7.1 °C 5.2 °C 1001.4 hPa West 17.7 km/h 27.4 km/h 88% 0.0 mm 178 W/m2
15:36 7.1 °C 5.2 °C 1001.4 hPa WNW 9.7 km/h 22.5 km/h 88% 0.0 mm 176 W/m2
15:41 7.2 °C 5.3 °C 1001.7 hPa West 11.1 km/h 29 km/h 88% 0.0 mm 163 W/m2
15:46 7.2 °C 5.3 °C 1001.7 hPa NW 14.3 km/h 19.3 km/h 88% 0.0 mm 79 W/m2
15:51 7.1 °C 5.2 °C 1002.0 hPa WNW 11.1 km/h 17.7 km/h 88% 0.0 mm 102 W/m2
15:56 7 °C 5.1 °C 1002.0 hPa WSW 9.7 km/h 19.3 km/h 88% 0.0 mm 118 W/m2
16:01 6.9 °C 5.2 °C 1002.0 hPa West 13 km/h 17.7 km/h 89% 0.0 mm 47 W/m2
16:06 6.9 °C 5.2 °C 1002.0 hPa West 9.7 km/h 19.3 km/h 89% 0.0 mm 63 W/m2
16:11 6.9 °C 5.2 °C 1002.4 hPa WSW 6.4 km/h 14.5 km/h 89% 0.0 mm 47 W/m2
16:16 6.8 °C 5.1 °C 1002.4 hPa NNW 13 km/h 16.1 km/h 89% 0.0 mm 67 W/m2
16:21 6.9 °C 5.2 °C 1002.4 hPa West 11.1 km/h 12.9 km/h 89% 0.0 mm 62 W/m2
16:26 6.9 °C 5.2 °C 1002.7 hPa WSW 14.3 km/h 19.3 km/h 89% 0.0 mm 46 W/m2
16:31 6.9 °C 5.2 °C 1002.7 hPa WSW 7.9 km/h 11.3 km/h 89% 0.0 mm 39 W/m2
16:36 6.9 °C 5.2 °C 1002.7 hPa WSW 6.4 km/h 6.4 km/h 89% 0.0 mm 28 W/m2
16:41 6.9 °C 5.2 °C 1002.7 hPa WNW 13 km/h 14.5 km/h 89% 0.0 mm 25 W/m2
16:46 6.8 °C 5 °C 1003.0 hPa West 11.1 km/h 14.5 km/h 88% 0.0 mm 25 W/m2
16:51 6.8 °C 5.1 °C 1003.0 hPa NNW 7.9 km/h 12.9 km/h 89% 0.0 mm 14 W/m2
16:56 6.8 °C 5.1 °C 1003.0 hPa NW 19.5 km/h 19.3 km/h 89% 0.0 mm 16 W/m2
17:01 6.7 °C 4.9 °C 1003.0 hPa WNW 6.4 km/h 14.5 km/h 88% 0.0 mm 25 W/m2
17:06 6.7 °C 4.9 °C 1003.4 hPa NW 19.5 km/h 19.3 km/h 88% 0.0 mm 35 W/m2
17:11 6.7 °C 4.9 °C 1003.4 hPa West 9.7 km/h 16.1 km/h 88% 0.0 mm 39 W/m2
17:16 6.7 °C 4.9 °C 1003.4 hPa WSW 13 km/h 22.5 km/h 88% 0.0 mm 51 W/m2
17:21 6.7 °C 4.9 °C 1003.7 hPa WSW 13 km/h 19.3 km/h 88% 0.0 mm 40 W/m2
17:26 6.7 °C 4.9 °C 1003.7 hPa WNW 14.3 km/h 20.9 km/h 88% 0.0 mm 44 W/m2
17:31 6.6 °C 4.8 °C 1003.7 hPa WNW 6.4 km/h 22.5 km/h 88% 0.0 mm 39 W/m2
17:36 6.6 °C 4.8 °C 1004.1 hPa WSW 14.3 km/h 14.5 km/h 88% 0.0 mm 35 W/m2
17:41 6.6 °C 4.6 °C 1004.1 hPa West 13 km/h 19.3 km/h 87% 0.0 mm 44 W/m2
17:46 6.6 °C 4.3 °C 1004.1 hPa NW 11.1 km/h 33.8 km/h 85% 0.0 mm 39 W/m2
17:52 6.6 °C 4.1 °C 1004.4 hPa West 14.3 km/h 19.3 km/h 84% 0.0 mm 30 W/m2
17:57 6.6 °C 3.9 °C 1004.4 hPa WNW 14.3 km/h 24.1 km/h 83% 0.0 mm 25 W/m2
18:02 6.5 °C 3.8 °C 1004.4 hPa WNW 11.1 km/h 17.7 km/h 83% 0.0 mm 16 W/m2
18:07 6.5 °C 3.8 °C 1004.7 hPa WSW 13 km/h 24.1 km/h 83% 0.0 mm 12 W/m2
18:12 6.5 °C 3.8 °C 1004.7 hPa West 9.7 km/h 16.1 km/h 83% 0.0 mm 11 W/m2
18:17 6.4 °C 3.7 °C 1004.7 hPa WNW 4.7 km/h 22.5 km/h 83% 0.0 mm 9 W/m2
18:22 6.4 °C 3.7 °C 1005.1 hPa WNW 7.9 km/h 16.1 km/h 83% 0.0 mm 5 W/m2
18:27 6.4 °C 3.7 °C 1005.1 hPa SW 14.3 km/h 22.5 km/h 83% 0.0 mm 0 W/m2
18:32 6.4 °C 3.7 °C 1005.1 hPa West 11.1 km/h 16.1 km/h 83% 0.0 mm 0 W/m2
18:37 6.3 °C 3.8 °C 1005.1 hPa WNW 7.9 km/h 16.1 km/h 84% 0.0 mm 0 W/m2
18:42 6.3 °C 3.8 °C 1005.4 hPa West 11.1 km/h 20.9 km/h 84% 0.0 mm 0 W/m2
18:47 6.2 °C 3.7 °C 1005.8 hPa WNW 14.3 km/h 17.7 km/h 84% 0.0 mm 0 W/m2
18:52 6.1 °C 3.6 °C 1005.8 hPa WNW 14.3 km/h 17.7 km/h 84% 0.0 mm 0 W/m2
18:57 6.1 °C 3.6 °C 1005.8 hPa WSW 7.9 km/h 20.9 km/h 84% 0.0 mm 0 W/m2
19:02 5.9 °C 3.6 °C 1006.1 hPa WSW 13 km/h 12.9 km/h 85% 0.0 mm 0 W/m2
19:07 5.9 °C 3.6 °C 1006.1 hPa WSW 16.3 km/h 16.1 km/h 85% 0.0 mm 0 W/m2
19:12 5.9 °C 3.6 °C 1006.1 hPa WSW 9.7 km/h 14.5 km/h 85% 0.0 mm 0 W/m2
19:17 5.9 °C 3.6 °C 1006.4 hPa West 11.1 km/h 11.3 km/h 85% 0.0 mm 0 W/m2
19:22 5.9 °C 3.7 °C 1006.4 hPa WSW 4.7 km/h 14.5 km/h 86% 0.0 mm 0 W/m2
19:27 5.9 °C 3.7 °C 1006.4 hPa WSW 11.1 km/h 14.5 km/h 86% 0.0 mm 0 W/m2
19:32 5.9 °C 3.7 °C 1006.4 hPa West 9.7 km/h 14.5 km/h 86% 0.0 mm 0 W/m2
19:37 5.8 °C 3.6 °C 1006.8 hPa WSW 6.4 km/h 12.9 km/h 86% 0.0 mm 0 W/m2
19:42 5.8 °C 3.6 °C 1006.8 hPa NW 6.4 km/h 14.5 km/h 86% 0.0 mm 0 W/m2
19:47 5.8 °C 3.6 °C 1006.8 hPa WSW 7.9 km/h 14.5 km/h 86% 0.0 mm 0 W/m2
19:52 5.8 °C 3.6 °C 1007.1 hPa West 11.1 km/h 17.7 km/h 86% 0.0 mm 0 W/m2
19:57 5.8 °C 3.6 °C 1007.1 hPa West 11.1 km/h 16.1 km/h 86% 0.0 mm 0 W/m2
20:02 5.8 °C 3.8 °C 1007.1 hPa WSW 13 km/h 17.7 km/h 87% 0.0 mm 0 W/m2
20:07 5.8 °C 3.8 °C 1007.1 hPa WNW 14.3 km/h 14.5 km/h 87% 0.0 mm 0 W/m2
20:12 5.7 °C 3.9 °C 1007.1 hPa West 6.4 km/h 17.7 km/h 88% 0.0 mm 0 W/m2
20:17 5.7 °C 3.9 °C 1007.5 hPa West 4.7 km/h 12.9 km/h 88% 0.0 mm 0 W/m2
20:22 5.7 °C 4 °C 1007.5 hPa West 13 km/h 16.1 km/h 89% 0.0 mm 0 W/m2
20:27 5.7 °C 4 °C 1007.5 hPa West 3.2 km/h 11.3 km/h 89% 0.0 mm 0 W/m2
20:32 5.6 °C 3.9 °C 1007.5 hPa WNW 6.4 km/h 17.7 km/h 89% 0.0 mm 0 W/m2
20:38 5.5 °C 3.8 °C 1007.8 hPa WSW 11.1 km/h 16.1 km/h 89% 0.0 mm 0 W/m2
20:43 5.5 °C 3.8 °C 1007.8 hPa WNW 4.7 km/h 17.7 km/h 89% 0.0 mm 0 W/m2
20:48 5.4 °C 3.7 °C 1008.1 hPa WSW 4.7 km/h 9.7 km/h 89% 0.0 mm 0 W/m2
20:53 5.3 °C 3.8 °C 1008.1 hPa West 3.2 km/h 9.7 km/h 90% 0.0 mm 0 W/m2
20:58 5.2 °C 3.7 °C 1008.1 hPa West 11.1 km/h 11.3 km/h 90% 0.0 mm 0 W/m2
21:03 5.2 °C 3.7 °C 1008.1 hPa West 11.1 km/h 19.3 km/h 90% 0.0 mm 0 W/m2
21:08 5.1 °C 3.6 °C 1008.5 hPa SW 6.4 km/h 14.5 km/h 90% 0.0 mm 0 W/m2
21:13 5.1 °C 3.6 °C 1008.5 hPa West 9.7 km/h 19.3 km/h 90% 0.0 mm 0 W/m2
21:18 5.1 °C 3.4 °C 1008.5 hPa WNW 6.4 km/h 16.1 km/h 89% 0.0 mm 0 W/m2
21:23 4.9 °C 3.2 °C 1008.5 hPa West 6.4 km/h 17.7 km/h 89% 0.0 mm 0 W/m2
21:28 4.9 °C 3.2 °C 1008.5 hPa West 9.7 km/h 17.7 km/h 89% 0.0 mm 0 W/m2
21:33 4.8 °C 3 °C 1008.8 hPa SW 3.2 km/h 6.4 km/h 88% 0.0 mm 0 W/m2
21:38 4.7 °C 3 °C 1008.8 hPa West 6.4 km/h 12.9 km/h 89% 0.0 mm 0 W/m2
21:43 4.7 °C 3 °C 1008.8 hPa West 3.2 km/h 6.4 km/h 89% 0.0 mm 0 W/m2
21:48 4.6 °C 2.8 °C 1009.1 hPa WNW 3.2 km/h 6.4 km/h 88% 0.0 mm 0 W/m2
21:53 4.5 °C 2.7 °C 1009.1 hPa West 6.4 km/h 12.9 km/h 88% 0.0 mm 0 W/m2
21:58 4.4 °C 2.6 °C 1009.1 hPa West 11.1 km/h 14.5 km/h 88% 0.0 mm 0 W/m2
22:03 4.4 °C 2.6 °C 1009.1 hPa West 4.7 km/h 6.4 km/h 88% 0.0 mm 0 W/m2
22:08 4.4 °C 2.4 °C 1009.5 hPa WNW 11.1 km/h 12.9 km/h 87% 0.0 mm 0 W/m2
22:13 4.4 °C 2.4 °C 1009.5 hPa West 9.7 km/h 9.7 km/h 87% 0.0 mm 0 W/m2
22:18 4.4 °C 2.3 °C 1009.5 hPa West 13 km/h 19.3 km/h 86% 0.0 mm 0 W/m2
22:23 4.4 °C 2.3 °C 1009.5 hPa WSW 13 km/h 12.9 km/h 86% 0.0 mm 0 W/m2
22:28 4.4 °C 2.1 °C 1009.5 hPa WSW 1.4 km/h 19.3 km/h 85% 0.0 mm 0 W/m2
22:33 4.4 °C 2.1 °C 1009.8 hPa West 9.7 km/h 16.1 km/h 85% 0.0 mm 0 W/m2
22:38 4.3 °C 2.2 °C 1009.8 hPa WNW 7.9 km/h 12.9 km/h 86% 0.0 mm 0 W/m2
22:43 4.3 °C 2.2 °C 1009.8 hPa WSW 7.9 km/h 12.9 km/h 86% 0.0 mm 0 W/m2
22:48 4.3 °C 2.2 °C 1009.8 hPa WSW 7.9 km/h 12.9 km/h 86% 0.0 mm 0 W/m2
22:53 4.2 °C 2.1 °C 1010.2 hPa West 9.7 km/h 14.5 km/h 86% 0.0 mm 0 W/m2
22:58 4.2 °C 2.1 °C 1010.2 hPa WNW 16.3 km/h 19.3 km/h 86% 0.0 mm 0 W/m2
23:03 4.2 °C 2.1 °C 1010.2 hPa NW 13 km/h 14.5 km/h 86% 0.0 mm 0 W/m2
23:08 4.2 °C 1.9 °C 1010.2 hPa West 9.7 km/h 19.3 km/h 85% 0.0 mm 0 W/m2
23:13 4.2 °C 1.9 °C 1010.2 hPa West 6.4 km/h 9.7 km/h 85% 0.0 mm 0 W/m2
23:18 4.1 °C 1.8 °C 1010.2 hPa West 3.2 km/h 11.3 km/h 85% 0.0 mm 0 W/m2
23:23 4.1 °C 1.8 °C 1010.2 hPa NW 3.2 km/h 8 km/h 85% 0.0 mm 0 W/m2
23:28 3.9 °C 1.8 °C 1010.5 hPa West 4.7 km/h 11.3 km/h 86% 0.0 mm 0 W/m2
23:33 3.9 °C 1.8 °C 1010.5 hPa WNW 6.4 km/h 12.9 km/h 86% 0.0 mm 0 W/m2
23:38 3.8 °C 1.7 °C 1010.8 hPa WNW 4.7 km/h 9.7 km/h 86% 0.0 mm 0 W/m2
23:43 3.8 °C 1.7 °C 1010.8 hPa West 13 km/h 16.1 km/h 86% 0.0 mm 0 W/m2
23:48 3.8 °C 1.7 °C 1010.8 hPa West 6.4 km/h 11.3 km/h 86% 0.0 mm 0 W/m2
23:53 3.7 °C 1.7 °C 1010.8 hPa West 4.7 km/h 16.1 km/h 87% 0.0 mm 0 W/m2
23:58 3.7 °C 1.7 °C 1010.8 hPa NW 6.4 km/h 12.9 km/h 87% 0.0 mm 0 W/m2
Juneau County Weather
Compliments of Weather Underground - 4 mb